KPWC

Details ICAO KPWC
Name PINE RIVER RGNL
Region United States
Timezone America/Chicago (UTC-5.0)
Plans Departing 0
Arriving 0
Stats Elevation 1,295 ft / 395 m (AMSL)
Location 46.724787° -94.381700°
Runways 1
Magnetic Variation 0.918° E
Sunrise 2018-05-27 10:32:23 UTC / 2018-05-27 05:32:23 Local
Sunset 2018-05-28 01:59:55 UTC / 2018-05-27 20:59:55 Local
Advertisement - Login to hide

Runways

ID Width Length Bearing (true) Bearing (mag) Surface Threshold Offset Overrun Length
16 75 ft / 23 m 3,001 ft / 915 m 162.87° 161.95° Asphalt 0 ft / 0 m 0 ft / 0 m
34 75 ft / 23 m 3,001 ft / 915 m 342.87° 341.95° Asphalt 0 ft / 0 m 0 ft / 0 m

Map

Weather


0- 5 10 15 20 25 30 35+ Temperature / ° C

Clouds and Precipitation
Forecast for 2018-05-27 18:00 UTC. Updated 26 minutes ago

Ground ~20,000 ft ~40,000 ft Winds

METAR

KPWC 271735Z AUTO 14004KT 10SM CLR 18/14 A2988 RMK AO2 LTG DSNT S

TAF

Not found

Frequencies

Recorded 118.52 MHz AWOS 3
Unicom 122.90 MHz CTAF
Warning: Do not use this data for real-world aviation or navigation. No guarantee of current accuracy is given.